Portada
METAR-TAF:

METAR-TAF

Aeroports :

Aktobe, Kazakhstan

latitud: 50-17N, longitud: 057-09E, altitud: 227 m

Observació

L'informe es va fer fa 41 minuts, a les 09:30 UTC
Vent 10 kt del Nord, variant entre Oest/Sud-Oest i Nord/Nord-Est
Temperatura 28°C
Humitat 28%
Pressió 1012 hPa
Visibilitat 10 km o més
sense núvols per sota de 1500 mi sense presència de cumulonimbus.

METAR: UATT 160930Z 01005MPS 240V020 CAVOK 28/08 Q1012 R31/70D NOSIG RMK QFE739/0985

Hora: 15:11 (10:11 UTC)

Pronòstic

L'informe es va fer fa 5 hores i 11 minuts, a les 05:00 UTC
Pronòstic vàlid del 16 a les 06 UTC al 17 a les 06 UTC
Vent 10 kt del Nord/Nord-Est
Visibilitat 10 km o més
sense núvols per sota de 1500 mi sense presència de cumulonimbus.
Evolucionant progressivament
l' 16 a les 21 UTC al 16 a les 23 UTC
Vent 6 kt del Est

TAF: UATT 160500Z 1606/1706 02005MPS CAVOK TX31/1612Z TN15/1701Z BECMG 1621/1623 08003MPS

Observacions i pronòstics meteorològics de més de 4000 aeroports (METAR i TAF).

Les estacions disponibles són els punts grocs i vermells al mapa.

Posi el ratolí al punt desitjat per veure el nom de l'estació.

Feu clic per veure les observacions i els pronòstics meteorològics.

Per canviar el mapa: feu clic els botons verds amb una creu de color negre per apropar; al botó verd amb un guió per allunyar la imatge; o en les fletxes verdes per a mapes adjacents.


METAR-TAF: